Time;durP1;ratioP1;P1;durP2;ratioP2;P2;SDS_P1;SDS_P2;PMS_P1;PMS_P2;Temp;Humidity;BMP_temperature;BMP_pressure;BME280_temperature;BME280_humidity;BME280_pressure;Samples;Min_cycle;Max_cycle;Signal;HPM_P1;HPM_P2
2023/04/26 00:00:12;;;;;;;19.75;10.88;;;;;;;10.04;96.19;96739.22;10361844;28;20362;-51
2023/04/26 00:05:12;;;;;;;19.83;11.07;;;;;;;10.06;96.21;96732.28;10361786;28;20132;-51
2023/04/26 00:10:11;;;;;;;20.10;10.85;;;;;;;10.06;95.88;96728.81;10360881;28;20116;-51
2023/04/26 00:15:10;;;;;;;22.77;10.65;;;;;;;10.04;95.41;96728.84;10361757;28;20076;-51
2023/04/26 00:20:11;;;;;;;;;;;;;;;10.04;95.85;96721.06;10361726;28;20582;-49
2023/04/26 00:25:10;;;;;;;20.05;11.60;;;;;;;10.02;94.85;96714.19;10361376;28;20394;-53
2023/04/26 00:30:10;;;;;;;17.20;9.45;;;;;;;9.96;94.91;96699.59;10360772;28;20132;-52
2023/04/26 00:35:09;;;;;;;20.17;11.30;;;;;;;9.44;94.97;96620.06;10360331;28;20068;-52
2023/04/26 00:40:08;;;;;;;;;;;;;;;9.81;95.27;96686.88;10360498;28;20075;-51
2023/04/26 00:45:07;;;;;;;11.25;7.03;;;;;;;9.74;94.21;96679.19;10360517;28;20019;-52
2023/04/26 00:50:07;;;;;;;13.82;7.45;;;;;;;9.59;94.33;96663.88;10359650;28;20607;-52
2023/04/26 00:55:07;;;;;;;14.90;7.50;;;;;;;9.55;94.30;96670.81;10360031;28;20076;-52
2023/04/26 01:00:07;;;;;;;13.70;7.75;;;;;;;9.39;94.33;96681.44;10358851;28;20053;-52
2023/04/26 01:05:06;;;;;;;15.30;7.50;;;;;;;9.33;94.24;96678.06;10369769;28;20119;-51
2023/04/26 01:10:08;;;;;;;15.85;7.88;;;;;;;9.28;94.53;96672.09;10373420;28;20151;-51
2023/04/26 01:15:08;;;;;;;17.70;9.05;;;;;;;9.25;94.64;96673.81;10373728;28;20068;-50
2023/04/26 01:20:09;;;;;;;19.88;9.30;;;;;;;9.21;94.29;96665.25;10373349;28;20052;-51
2023/04/26 01:25:11;;;;;;;24.45;12.15;;;;;;;9.15;94.78;96667.91;10373152;28;20952;-50
2023/04/26 01:30:10;;;;;;;21.75;12.00;;;;;;;9.08;94.76;96666.28;10372783;28;20136;-51
2023/04/26 01:35:09;;;;;;;22.00;11.60;;;;;;;9.05;95.27;96671.50;10373490;28;20143;-51
2023/04/26 01:40:09;;;;;;;17.85;9.55;;;;;;;8.11;96.42;96579.47;10372465;28;20102;-51
2023/04/26 01:45:08;;;;;;;17.50;10.90;;;;;;;8.56;97.06;96682.41;10373271;28;20187;-50
2023/04/26 01:50:08;;;;;;;14.73;8.77;;;;;;;8.56;96.49;96669.47;10372411;28;20180;-50
2023/04/26 01:55:08;;;;;;;15.07;8.93;;;;;;;8.50;96.27;96668.66;10372805;28;20076;-51
2023/04/26 02:00:07;;;;;;;;;;;;;;;8.37;96.34;96685.16;10372654;28;20049;-52
2023/04/26 02:05:09;;;;;;;16.85;9.85;;;;;;;8.33;96.13;96691.22;10372072;28;19947;-52
2023/04/26 02:10:09;;;;;;;18.02;9.60;;;;;;;8.23;96.31;96694.78;10371922;28;20517;-51
2023/04/26 02:15:08;;;;;;;;;;;;;;;8.32;96.04;96693.81;10369312;28;20068;-51
2023/04/26 02:20:10;;;;;;;31.98;10.35;;;;;;;8.38;96.07;96702.38;10365488;28;20372;-51
2023/04/26 02:25:10;;;;;;;24.45;9.95;;;;;;;8.49;96.32;96697.97;10365469;28;20072;-51
2023/04/26 02:30:10;;;;;;;27.75;11.05;;;;;;;8.62;96.57;96711.63;10364667;28;20136;-51
2023/04/26 02:35:09;;;;;;;53.42;13.10;;;;;;;8.63;97.37;96692.66;10365864;28;20084;-51
2023/04/26 02:40:09;;;;;;;62.97;14.80;;;;;;;8.70;97.46;96696.88;10364506;28;20052;-52
2023/04/26 02:45:08;;;;;;;68.47;13.95;;;;;;;8.42;97.40;96631.69;10364398;28;20075;-52
2023/04/26 02:50:09;;;;;;;51.53;15.02;;;;;;;8.66;98.39;96673.66;10365177;28;20156;-52
2023/04/26 02:55:08;;;;;;;43.72;13.57;;;;;;;8.61;98.34;96673.72;10365032;28;20460;-50
2023/04/26 03:00:08;;;;;;;33.03;13.10;;;;;;;8.68;97.92;96666.75;10363104;28;20064;-51
2023/04/26 03:05:08;;;;;;;45.60;14.40;;;;;;;8.79;97.54;96669.22;10364844;28;20135;-52
2023/04/26 03:10:08;;;;;;;33.13;15.48;;;;;;;8.84;97.18;96672.59;10363331;28;20575;-50
2023/04/26 03:15:07;;;;;;;38.42;16.08;;;;;;;8.86;97.32;96688.97;10363078;28;20596;-49
2023/04/26 03:20:07;;;;;;;33.58;13.63;;;;;;;8.80;97.04;96692.47;10363140;28;20064;-49
2023/04/26 03:25:06;;;;;;;28.55;13.65;;;;;;;8.60;96.46;96686.63;10363319;28;20133;-52
2023/04/26 03:30:06;;;;;;;32.00;15.05;;;;;;;8.50;95.72;96675.53;10363277;28;20156;-50
2023/04/26 03:35:05;;;;;;;31.60;16.23;;;;;;;8.12;96.93;96686.25;10362179;28;20071;-51
2023/04/26 03:40:07;;;;;;;;;;;;;;;7.93;98.08;96683.81;10363575;28;20363;-49
2023/04/26 03:45:06;;;;;;;195.35;22.25;;;;;;;7.65;99.58;96686.59;10365602;28;19944;-51
2023/04/26 03:50:07;;;;;;;186.43;21.20;;;;;;;7.74;100.00;96690.00;10364974;28;20072;-51
2023/04/26 03:55:08;;;;;;;48.78;19.42;;;;;;;7.79;100.00;96702.00;10363102;28;20556;-49
2023/04/26 04:00:13;;;;;;;87.03;19.15;;;;;;;8.10;100.00;96691.41;10365165;28;20068;-51
2023/04/26 04:05:12;;;;;;;49.30;16.42;;;;;;;8.39;100.00;96683.41;10364515;28;20069;-51
2023/04/26 04:10:11;;;;;;;58.53;17.58;;;;;;;8.71;100.00;96702.91;10364365;28;20024;-52
2023/04/26 04:15:10;;;;;;;48.75;16.23;;;;;;;9.03;99.19;96697.38;10363389;28;20045;-52
2023/04/26 04:20:09;;;;;;;23.58;12.32;;;;;;;9.08;97.52;96702.50;10363780;28;20057;-51
2023/04/26 04:25:12;;;;;;;43.15;13.85;;;;;;;9.00;96.10;96701.75;10363484;28;20142;-51
2023/04/26 04:30:11;;;;;;;28.58;13.40;;;;;;;8.88;96.29;96708.78;10337342;28;20164;-52
2023/04/26 04:35:10;;;;;;;;;;;;;;;8.96;95.91;96718.19;10361787;28;20072;-52
2023/04/26 04:40:10;;;;;;;25.48;14.68;;;;;;;8.91;94.92;96723.41;10362811;28;19985;-51
2023/04/26 04:45:09;;;;;;;17.65;11.52;;;;;;;8.86;95.32;96715.69;10358800;28;20539;-52
2023/04/26 04:50:08;;;;;;;;;;;;;;;9.20;94.54;96730.81;10359952;28;20131;-51
2023/04/26 04:55:07;;;;;;;27.60;14.95;;;;;;;9.35;93.96;96728.09;10359565;28;19952;-52
2023/04/26 05:00:11;;;;;;;24.60;15.15;;;;;;;9.42;94.10;96715.91;10358516;28;20064;-51
2023/04/26 05:05:14;;;;;;;19.33;12.23;;;;;;;9.26;92.46;96725.56;10359373;28;20120;-52
2023/04/26 05:10:13;;;;;;;20.17;12.73;;;;;;;9.03;92.83;96727.59;10357369;28;20136;-49
2023/04/26 05:15:12;;;;;;;23.05;14.30;;;;;;;9.05;94.39;96728.44;10358946;28;20739;-49
2023/04/26 05:20:12;;;;;;;21.38;13.60;;;;;;;8.80;94.50;96669.19;10359110;28;20096;-51
2023/04/26 05:25:12;;;;;;;21.67;13.57;;;;;;;9.38;93.90;96734.97;10360314;28;20087;-50
2023/04/26 05:30:12;;;;;;;16.58;11.90;;;;;;;9.62;92.90;96733.75;10359341;28;20140;-51
2023/04/26 05:35:10;;;;;;;19.60;12.95;;;;;;;9.86;93.40;96735.16;10358957;28;20087;-52
2023/04/26 05:40:11;;;;;;;22.02;13.48;;;;;;;10.28;90.43;96735.38;10359870;28;20104;-52
2023/04/26 05:45:10;;;;;;;16.77;11.43;;;;;;;10.60;90.33;96742.63;10358472;28;20215;-50
2023/04/26 05:50:09;;;;;;;22.90;14.43;;;;;;;10.87;87.23;96740.47;10359623;28;20120;-51
2023/04/26 05:55:09;;;;;;;19.67;13.35;;;;;;;11.12;85.65;96739.97;10367612;28;20590;-52
2023/04/26 06:00:11;;;;;;;;;;;;;;;11.07;84.26;96753.06;10367004;28;20065;-52
2023/04/26 06:05:10;;;;;;;21.48;15.20;;;;;;;11.10;84.85;96747.78;10363586;28;20011;-50
2023/04/26 06:10:09;;;;;;;20.45;15.02;;;;;;;11.37;84.67;96749.00;10364925;28;20040;-52
2023/04/26 06:15:09;;;;;;;24.45;17.45;;;;;;;11.79;84.13;96740.34;10366205;28;20480;-52
2023/04/26 06:20:09;;;;;;;25.75;17.42;;;;;;;11.70;82.48;96741.38;10366426;28;20064;-52
2023/04/26 06:25:08;;;;;;;24.35;16.75;;;;;;;11.67;81.72;96742.31;10365084;28;20061;-52
2023/04/26 06:30:07;;;;;;;;;;;;;;;11.55;81.49;96755.56;10365441;28;20124;-49
2023/04/26 06:35:06;;;;;;;17.52;14.07;;;;;;;11.57;83.38;96739.91;10361503;28;19917;-52
2023/04/26 06:40:06;;;;;;;12.70;9.63;;;;;;;11.46;82.41;96745.38;10354750;28;20132;-50
2023/04/26 06:45:06;;;;;;;13.07;10.15;;;;;;;11.50;83.88;96740.94;10359714;28;20107;-53
2023/04/26 06:50:05;;;;;;;14.60;9.85;;;;;;;11.70;82.09;96730.13;10365091;28;20080;-53
2023/04/26 06:55:04;;;;;;;19.20;15.32;;;;;;;12.10;83.46;96740.47;10363146;28;20382;-53
2023/04/26 07:00:05;;;;;;;20.42;14.27;;;;;;;12.65;83.36;96733.09;10364464;28;20128;-52
2023/04/26 07:05:05;;;;;;;39.17;19.48;;;;;;;13.02;81.73;96739.94;10365648;28;20127;-52
2023/04/26 07:10:04;;;;;;;22.63;15.43;;;;;;;13.43;79.60;96741.41;10362379;28;20566;-51
2023/04/26 07:15:05;;;;;;;18.02;12.93;;;;;;;13.39;71.56;96695.47;10364862;28;20075;-52
2023/04/26 07:20:05;;;;;;;17.08;14.15;;;;;;;13.97;74.94;96748.50;10366177;28;20368;-52
2023/04/26 07:25:04;;;;;;;27.83;16.08;;;;;;;14.25;68.71;96732.00;10361661;28;20511;-51
2023/04/26 07:30:04;;;;;;;20.02;13.45;;;;;;;14.37;66.57;96731.59;10364579;28;20091;-50
2023/04/26 07:35:06;;;;;;;18.45;13.95;;;;;;;14.73;67.87;96728.72;10358106;28;20443;-50
2023/04/26 07:40:07;;;;;;;13.23;9.70;;;;;;;14.97;60.23;96732.25;10363688;28;20122;-51
2023/04/26 07:45:07;;;;;;;13.88;8.25;;;;;;;15.32;57.27;96729.25;10359499;28;20080;-51
2023/04/26 07:50:07;;;;;;;13.73;7.80;;;;;;;15.88;58.24;96731.56;10359183;28;20152;-51
2023/04/26 07:55:07;;;;;;;9.18;6.65;;;;;;;16.32;52.45;96731.56;10360337;28;20112;-51
2023/04/26 08:00:09;;;;;;;9.20;6.35;;;;;;;15.74;48.27;96623.94;10353169;28;20152;-51
2023/04/26 08:05:08;;;;;;;6.70;4.97;;;;;;;16.46;47.43;96718.75;10358143;28;20116;-51
2023/04/26 08:10:07;;;;;;;5.78;4.15;;;;;;;16.75;46.63;96721.06;10355262;28;20159;-51
2023/04/26 08:15:07;;;;;;;3.95;3.50;;;;;;;16.66;44.90;96702.22;10356393;28;20206;-52
2023/04/26 08:20:08;;;;;;;4.30;3.63;;;;;;;16.13;44.49;96734.06;10351024;28;20119;-52
2023/04/26 08:25:07;;;;;;;6.82;4.65;;;;;;;16.11;49.42;96727.19;10361537;28;20505;-51
2023/04/26 08:30:06;;;;;;;5.53;4.22;;;;;;;15.98;45.29;96732.91;10358727;28;20119;-52
2023/04/26 08:35:06;;;;;;;4.82;3.83;;;;;;;16.54;46.07;96721.06;10360593;28;20579;-51
2023/04/26 08:40:08;;;;;;;7.65;5.47;;;;;;;16.63;47.28;96714.56;10358293;28;20151;-52
2023/04/26 08:45:10;;;;;;;4.15;3.03;;;;;;;16.76;41.07;96725.41;10356479;28;20127;-53
2023/04/26 08:50:11;;;;;;;2.45;2.10;;;;;;;16.33;39.98;96728.03;10360394;28;20123;-52
2023/04/26 08:55:15;;;;;;;1.65;1.55;;;;;;;15.72;38.16;96733.03;10362250;28;20083;-52
2023/04/26 09:00:15;;;;;;;2.92;1.60;;;;;;;15.76;37.69;96730.22;10362617;28;20135;-52
2023/04/26 09:05:14;;;;;;;2.65;1.33;;;;;;;15.46;38.24;96713.94;10362332;28;20134;-51
2023/04/26 09:10:20;;;;;;;3.78;1.60;;;;;;;15.95;37.89;96725.19;10362440;28;20133;-52
2023/04/26 09:15:25;;;;;;;1.75;1.30;;;;;;;15.79;35.19;96742.38;10363362;28;20068;-53
2023/04/26 09:20:26;;;;;;;2.45;1.70;;;;;;;15.82;38.76;96737.03;10362233;28;20132;-52
2023/04/26 09:25:29;;;;;;;2.53;1.50;;;;;;;15.90;36.01;96690.47;10367361;28;20141;-53
2023/04/26 09:30:29;;;;;;;1.92;1.65;;;;;;;16.03;36.89;96741.44;10370787;28;20140;-53
2023/04/26 09:35:35;;;;;;;2.72;1.23;;;;;;;16.31;38.09;96729.88;10371647;28;20546;-53
2023/04/26 09:40:46;;;;;;;2.08;1.48;;;;;;;16.47;38.39;96738.81;10370429;28;20655;-52
2023/04/26 09:45:56;;;;;;;1.85;1.30;;;;;;;16.43;37.99;96734.59;10371466;28;20115;-52
2023/04/26 09:51:08;;;;;;;2.22;1.65;;;;;;;15.60;36.83;96591.38;10367122;28;20128;-52
2023/04/26 09:56:13;;;;;;;2.33;1.33;;;;;;;16.19;36.75;96740.84;10366936;28;20495;-52
2023/04/26 10:01:15;;;;;;;4.18;1.73;;;;;;;15.88;37.83;96742.03;10365836;28;20132;-51
2023/04/26 10:06:15;;;;;;;1.67;1.58;;;;;;;15.55;37.97;96669.16;10364329;28;20069;-52
2023/04/26 10:11:14;;;;;;;4.88;1.80;;;;;;;15.91;37.98;96730.59;10365739;28;20129;-53
2023/04/26 10:16:13;;;;;;;1.38;1.27;;;;;;;15.60;35.56;96736.94;10364601;28;20072;-53
2023/04/26 10:21:20;;;;;;;2.05;1.42;;;;;;;15.78;36.23;96683.94;10365609;28;20029;-52
2023/04/26 10:26:55;;;;;;;1.83;1.38;;;;;;;15.65;34.85;96719.34;10365229;28;20468;-53
2023/04/26 10:32:08;;;;;;;3.10;1.98;;;;;;;16.09;36.96;96714.16;10364966;28;20136;-53
2023/04/26 10:37:17;;;;;;;2.25;1.50;;;;;;;15.52;37.30;96723.31;10362916;28;20924;-52
2023/04/26 10:42:26;;;;;;;3.13;1.88;;;;;;;15.52;37.93;96724.16;10364903;28;20132;-53
2023/04/26 10:47:30;;;;;;;2.03;1.83;;;;;;;15.64;37.50;96718.47;10365780;28;20466;-53
2023/04/26 10:52:29;;;;;;;3.42;2.08;;;;;;;15.71;36.01;96716.47;10366381;28;20123;-53
2023/04/26 10:57:48;;;;;;;2.65;1.45;;;;;;;15.61;35.23;96729.03;10366331;28;20028;-52
2023/04/26 11:02:50;;;;;;;1.30;1.20;;;;;;;15.74;34.61;96715.50;10366146;28;20120;-53
2023/04/26 11:08:03;;;;;;;1.83;1.42;;;;;;;15.85;34.34;96715.97;10365889;28;20056;-53
2023/04/26 11:13:02;;;;;;;2.88;1.60;;;;;;;16.16;37.16;96720.00;10362759;28;20120;-52
2023/04/26 11:18:03;;;;;;;2.75;1.70;;;;;;;16.21;36.46;96715.47;10364717;28;20064;-53
2023/04/26 11:23:02;;;;;;;2.03;1.83;;;;;;;15.95;36.78;96725.19;10364878;28;20072;-52
2023/04/26 11:28:02;;;;;;;2.38;1.80;;;;;;;16.18;35.73;96712.94;10365765;28;20199;-54
2023/04/26 11:33:05;;;;;;;2.60;1.92;;;;;;;16.06;37.26;96724.75;10365462;28;20072;-52
2023/04/26 11:38:04;;;;;;;4.72;2.22;;;;;;;16.05;38.60;96718.66;10366460;28;20060;-53
2023/04/26 11:43:04;;;;;;;3.75;2.40;;;;;;;15.65;38.91;96737.63;10365701;28;20088;-53
2023/04/26 11:48:06;;;;;;;7.82;3.53;;;;;;;15.61;39.29;96734.28;10365179;28;20077;-53
2023/04/26 11:53:07;;;;;;;6.32;2.58;;;;;;;15.52;39.02;96742.47;10365234;28;20087;-53
2023/04/26 11:58:13;;;;;;;4.93;1.80;;;;;;;15.49;38.85;96752.19;10364828;28;20064;-53
2023/04/26 12:03:15;;;;;;;5.43;2.47;;;;;;;15.63;38.27;96697.63;10362531;28;20124;-53
2023/04/26 12:08:14;;;;;;;2.17;1.70;;;;;;;15.76;36.87;96732.84;10365315;28;20079;-53
2023/04/26 12:13:13;;;;;;;4.30;2.53;;;;;;;15.92;37.19;96727.06;10364246;28;20119;-53
2023/04/26 12:18:12;;;;;;;6.45;2.50;;;;;;;16.20;37.69;96732.06;10361242;28;20025;-53
2023/04/26 12:23:13;;;;;;;;;;;;;;;16.33;36.81;96737.66;10359409;28;20129;-53
2023/04/26 12:28:12;;;;;;;2.80;2.10;;;;;;;15.07;36.77;96599.50;10358694;28;19999;-53
2023/04/26 12:33:11;;;;;;;5.80;2.55;;;;;;;15.99;36.90;96712.81;10361644;28;20144;-54
2023/04/26 12:38:10;;;;;;;3.83;2.05;;;;;;;16.04;36.40;96722.22;10363639;28;20118;-53
2023/04/26 12:43:10;;;;;;;8.63;2.63;;;;;;;15.84;36.60;96686.34;10362977;28;20073;-53
2023/04/26 12:48:09;;;;;;;7.47;2.92;;;;;;;15.89;36.82;96707.09;10362754;28;20521;-53
2023/04/26 12:53:09;;;;;;;4.93;2.15;;;;;;;15.66;37.05;96731.47;10362827;28;20143;-53
2023/04/26 12:58:08;;;;;;;2.63;2.10;;;;;;;15.01;37.66;96739.06;10363682;28;20077;-53
2023/04/26 13:03:08;;;;;;;4.90;2.55;;;;;;;15.40;39.43;96715.00;10363347;28;20031;-53
2023/04/26 13:08:07;;;;;;;3.42;2.15;;;;;;;15.52;37.69;96718.94;10362589;28;21789;-54
2023/04/26 13:13:06;;;;;;;2.85;2.17;;;;;;;15.40;37.41;96722.84;10362798;28;20115;-54
2023/04/26 13:18:05;;;;;;;2.28;2.00;;;;;;;15.28;37.21;96740.75;10363217;28;20025;-53
2023/04/26 13:23:04;;;;;;;;;;;;;;;15.33;37.44;96749.28;10363551;28;20473;-53
2023/04/26 13:28:03;;;;;;;3.77;2.20;;;;;;;15.36;37.24;96707.34;10363008;28;20386;-54
2023/04/26 13:33:02;;;;;;;;;;;;;;;15.54;34.77;96742.41;10362659;28;20071;-54
2023/04/26 13:38:00;;;;;;;2.77;2.00;;;;;;;15.77;35.94;96755.47;10363084;28;19919;-53
2023/04/26 13:42:59;;;;;;;;;;;;;;;15.70;36.21;96771.47;10363491;28;20527;-53
2023/04/26 13:47:58;;;;;;;3.23;2.27;;;;;;;15.45;37.05;96770.59;10359709;28;20395;-54
2023/04/26 13:52:58;;;;;;;;;;;;;;;15.71;37.11;96789.69;10362847;28;20115;-53
2023/04/26 13:57:57;;;;;;;3.03;2.22;;;;;;;15.81;37.92;96790.25;10363032;28;19948;-53
2023/04/26 14:02:56;;;;;;;3.78;2.08;;;;;;;15.40;38.22;96782.13;10362437;28;20064;-53
2023/04/26 14:07:56;;;;;;;39.03;7.80;;;;;;;15.48;38.22;96785.31;10362801;28;20043;-54
2023/04/26 14:12:55;;;;;;;3.88;2.47;;;;;;;15.16;39.17;96795.16;10365418;28;20132;-54
2023/04/26 14:17:54;;;;;;;4.50;2.70;;;;;;;14.89;40.27;96809.16;10369662;28;20072;-54
2023/04/26 14:22:53;;;;;;;7.45;2.97;;;;;;;14.41;40.18;96816.75;10369735;28;20088;-53
2023/04/26 14:27:52;;;;;;;;;;;;;;;14.47;41.56;96817.44;10338600;28;20161;-53
2023/04/26 14:32:51;;;;;;;4.03;2.85;;;;;;;14.41;41.03;96805.44;10368518;28;20029;-53
2023/04/26 14:37:50;;;;;;;;;;;;;;;14.44;40.96;96826.22;10363181;28;20053;-53
2023/04/26 14:42:49;;;;;;;11.25;3.20;;;;;;;14.34;41.69;96823.06;10359571;28;19955;-53
2023/04/26 14:47:48;;;;;;;;;;;;;;;14.38;42.60;96834.22;10362986;28;20133;-53
2023/04/26 14:52:47;;;;;;;11.23;4.10;;;;;;;14.20;42.77;96846.97;10362348;28;19963;-53
2023/04/26 14:57:46;;;;;;;;;;;;;;;14.25;42.46;96843.38;10365065;28;20035;-53
2023/04/26 15:02:45;;;;;;;4.07;2.95;;;;;;;14.04;41.65;96816.16;10364980;28;20003;-53
2023/04/26 15:07:44;;;;;;;6.55;3.15;;;;;;;14.20;41.96;96859.16;10361225;28;20116;-53
2023/04/26 15:12:43;;;;;;;;;;;;;;;14.03;42.33;96869.22;10362603;28;20614;-53
2023/04/26 15:17:42;;;;;;;2.43;2.20;;;;;;;13.57;40.93;96827.91;10363719;28;20424;-53
2023/04/26 15:22:41;;;;;;;;;;;;;;;13.84;41.62;96877.56;10362739;28;20084;-53
2023/04/26 15:27:40;;;;;;;4.35;2.65;;;;;;;13.96;42.21;96885.06;10363357;28;20449;-53
2023/04/26 15:32:39;;;;;;;5.05;2.70;;;;;;;13.90;41.37;96898.25;10362218;28;20138;-53
2023/04/26 15:37:38;;;;;;;;;;;;;;;14.07;40.99;96894.31;10362141;28;20041;-53
2023/04/26 15:42:36;;;;;;;6.15;2.63;;;;;;;14.14;39.34;96895.84;10362732;28;19935;-53
2023/04/26 15:47:35;;;;;;;;;;;;;;;13.98;41.21;96901.53;10363002;28;20131;-53
2023/04/26 15:52:35;;;;;;;7.83;4.70;;;;;;;14.22;41.10;96906.06;10362728;28;19921;-53
2023/04/26 15:57:34;;;;;;;6.93;3.83;;;;;;;14.17;41.89;96903.59;10359699;28;20115;-53
2023/04/26 16:02:33;;;;;;;3.72;2.80;;;;;;;14.11;42.12;96907.25;10361515;28;20162;-53
2023/04/26 16:07:32;;;;;;;;;;;;;;;13.76;42.03;96921.25;10361488;28;20205;-53
2023/04/26 16:12:31;;;;;;;5.30;3.28;;;;;;;13.42;42.39;96922.13;10351896;28;20033;-53
2023/04/26 16:17:30;;;;;;;;;;;;;;;13.27;43.15;96931.16;10355867;28;20123;-53
2023/04/26 16:22:28;;;;;;;3.93;2.67;;;;;;;13.12;42.98;96935.03;10354992;28;20009;-53
2023/04/26 16:27:27;;;;;;;;;;;;;;;12.98;43.75;96937.09;10359743;28;20107;-53
2023/04/26 16:32:26;;;;;;;5.60;3.20;;;;;;;12.88;43.81;96961.63;10346775;28;19967;-53
2023/04/26 16:37:25;;;;;;;;;;;;;;;12.81;44.68;96957.44;10362105;28;20164;-53
2023/04/26 16:42:25;;;;;;;8.75;5.60;;;;;;;12.91;44.71;96956.38;10358765;28;20349;-53
2023/04/26 16:47:24;;;;;;;5.82;3.35;;;;;;;12.49;45.06;96920.00;10359685;28;20264;-52
2023/04/26 16:52:22;;;;;;;;;;;;;;;12.70;45.04;96973.34;10356584;28;20621;-53
2023/04/26 16:57:22;;;;;;;4.57;2.60;;;;;;;12.56;46.15;96981.44;10355869;28;19963;-53
2023/04/26 17:02:21;;;;;;;8.10;4.63;;;;;;;12.53;46.64;96986.69;10357680;28;20119;-52
2023/04/26 17:07:20;;;;;;;5.95;4.13;;;;;;;12.20;47.18;96996.84;10358829;28;20128;-53
2023/04/26 17:12:19;;;;;;;7.72;3.60;;;;;;;12.18;47.19;97001.25;10358597;28;20123;-53
2023/04/26 17:17:18;;;;;;;;;;;;;;;12.08;47.52;97013.56;10361258;28;20098;-53
2023/04/26 17:22:17;;;;;;;4.38;3.10;;;;;;;11.96;48.51;97023.34;10358616;28;20398;-52
2023/04/26 17:27:17;;;;;;;7.45;3.55;;;;;;;11.98;48.12;97029.38;10358432;28;20531;-53
2023/04/26 17:32:16;;;;;;;;;;;;;;;11.94;48.40;97035.50;10359983;28;20103;-53
2023/04/26 17:37:15;;;;;;;6.75;3.65;;;;;;;12.05;48.00;97047.44;10359267;28;20279;-53
2023/04/26 17:42:14;;;;;;;7.85;3.72;;;;;;;11.96;48.66;97052.78;10356569;28;20048;-53
2023/04/26 17:47:13;;;;;;;8.93;4.15;;;;;;;12.04;48.36;97056.13;10362545;28;20406;-53
2023/04/26 17:52:11;;;;;;;10.15;5.55;;;;;;;12.33;48.76;97059.13;10366365;28;20136;-53
2023/04/26 17:57:10;;;;;;;12.15;4.60;;;;;;;12.44;48.57;97076.22;10366572;28;20051;-53
2023/04/26 18:02:09;;;;;;;17.95;6.18;;;;;;;12.41;48.80;97081.47;10365850;28;20048;-52
2023/04/26 18:07:09;;;;;;;;;;;;;;;12.57;48.27;97097.66;10367400;28;20468;-53
2023/04/26 18:12:08;;;;;;;10.48;4.13;;;;;;;12.54;47.86;97096.88;10366416;28;20378;-52
2023/04/26 18:17:07;;;;;;;;;;;;;;;12.59;47.67;97103.69;10365709;28;20463;-53
2023/04/26 18:22:07;;;;;;;9.05;5.30;;;;;;;12.66;47.47;97113.09;10365963;28;20352;-53
2023/04/26 18:27:06;;;;;;;9.82;4.75;;;;;;;12.72;47.38;97122.53;10364993;28;20115;-53
2023/04/26 18:32:05;;;;;;;;;;;;;;;12.84;47.78;97122.28;10359634;28;20147;-54
2023/04/26 18:37:04;;;;;;;7.47;5.00;;;;;;;12.79;48.61;97111.13;10324299;28;20011;-53
2023/04/26 18:42:03;;;;;;;7.05;4.55;;;;;;;12.86;47.46;97132.66;10324343;28;20065;-53
2023/04/26 18:47:02;;;;;;;;;;;;;;;12.72;46.99;97141.63;10323893;28;20077;-53
2023/04/26 18:52:01;;;;;;;6.43;4.47;;;;;;;12.51;47.80;97106.44;10323748;28;19952;-53
2023/04/26 18:57:00;;;;;;;8.88;5.95;;;;;;;12.71;46.75;97126.88;10323024;28;20278;-53
2023/04/26 19:02:00;;;;;;;5.57;3.70;;;;;;;12.59;46.98;97153.16;10322181;28;20056;-53
2023/04/26 19:06:59;;;;;;;4.22;3.40;;;;;;;12.30;46.09;97162.34;10322264;28;20155;-52
2023/04/26 19:11:59;;;;;;;7.50;3.80;;;;;;;12.15;46.73;97167.75;10322594;28;20065;-53
2023/04/26 19:16:58;;;;;;;7.43;4.00;;;;;;;12.08;46.93;97181.75;10321893;28;20116;-53
2023/04/26 19:21:57;;;;;;;5.47;3.67;;;;;;;12.25;48.51;97174.53;10324338;28;20048;-53
2023/04/26 19:26:56;;;;;;;;;;;;;;;12.29;49.17;97177.97;10322875;28;20041;-53
2023/04/26 19:31:55;;;;;;;7.57;4.57;;;;;;;12.01;48.30;97162.78;10322981;28;19925;-53
2023/04/26 19:36:54;;;;;;;;;;;;;;;12.23;49.21;97186.72;10322463;28;20064;-53
2023/04/26 19:41:53;;;;;;;6.13;3.88;;;;;;;11.86;47.26;97192.50;10320628;28;20330;-53
2023/04/26 19:46:52;;;;;;;9.90;6.25;;;;;;;12.09;48.76;97193.88;10320034;28;20053;-53
2023/04/26 19:51:51;;;;;;;9.32;5.57;;;;;;;11.79;48.11;97206.47;10319367;28;20219;-53
2023/04/26 19:56:50;;;;;;;;;;;;;;;11.48;48.85;97218.16;10320718;28;20061;-51
2023/04/26 20:01:49;;;;;;;6.45;4.68;;;;;;;11.06;52.63;97220.41;10321713;28;20276;-52
2023/04/26 20:06:48;;;;;;;;;;;;;;;10.82;52.71;97225.84;10323415;28;20080;-51
2023/04/26 20:11:48;;;;;;;7.50;4.05;;;;;;;10.75;52.02;97228.50;10319001;28;20387;-51
2023/04/26 20:16:47;;;;;;;7.80;5.20;;;;;;;10.84;51.75;97231.84;10321583;28;20132;-51
2023/04/26 20:21:46;;;;;;;7.88;4.20;;;;;;;10.86;51.95;97250.00;10320993;28;20132;-51
2023/04/26 20:26:45;;;;;;;6.03;3.97;;;;;;;10.60;52.22;97232.97;10320076;28;20044;-51
2023/04/26 20:31:44;;;;;;;9.00;4.55;;;;;;;10.51;52.45;97253.81;10320439;28;20150;-51
2023/04/26 20:36:43;;;;;;;7.45;4.40;;;;;;;10.70;52.49;97257.09;10320356;28;20044;-51
2023/04/26 20:41:42;;;;;;;;;;;;;;;10.81;52.38;97262.19;10319680;28;20073;-51
2023/04/26 20:46:41;;;;;;;7.15;4.15;;;;;;;10.42;52.85;97256.47;10319612;28;20039;-51
2023/04/26 20:51:40;;;;;;;8.00;5.00;;;;;;;10.65;52.92;97268.41;10319041;28;20044;-51
2023/04/26 20:56:39;;;;;;;8.02;4.70;;;;;;;10.69;51.92;97268.34;10319423;28;20048;-51
2023/04/26 21:01:38;;;;;;;8.30;5.55;;;;;;;10.78;52.04;97272.59;10319595;28;20384;-51
2023/04/26 21:06:37;;;;;;;6.47;4.68;;;;;;;10.51;52.17;97271.97;10317987;28;20120;-51
2023/04/26 21:11:36;;;;;;;;;;;;;;;10.64;52.55;97277.91;10318408;28;20112;-51
2023/04/26 21:16:34;;;;;;;8.05;4.72;;;;;;;10.73;52.45;97272.66;10318843;28;19979;-51
2023/04/26 21:21:34;;;;;;;7.30;4.82;;;;;;;10.47;52.68;97227.91;10323551;28;20455;-51
2023/04/26 21:26:33;;;;;;;7.93;4.32;;;;;;;10.90;52.81;97289.81;10327887;28;20172;-52
2023/04/26 21:31:32;;;;;;;6.57;4.57;;;;;;;10.86;52.48;97293.28;10326695;28;20049;-52
2023/04/26 21:36:31;;;;;;;6.15;4.18;;;;;;;10.87;52.48;97290.72;10327710;28;20032;-50
2023/04/26 21:41:30;;;;;;;;;;;;;;;11.11;52.48;97305.19;10327576;28;20061;-52
2023/04/26 21:46:29;;;;;;;5.55;3.92;;;;;;;11.21;51.77;97311.13;10330433;28;19913;-51
2023/04/26 21:51:28;;;;;;;7.72;4.80;;;;;;;11.35;51.86;97308.38;10330147;28;20068;-51
2023/04/26 21:56:27;;;;;;;6.00;4.60;;;;;;;11.44;51.74;97305.69;10329596;28;20045;-51
2023/04/26 22:01:26;;;;;;;7.07;4.55;;;;;;;11.36;51.11;97317.88;10328609;28;20033;-51
2023/04/26 22:06:26;;;;;;;5.65;4.53;;;;;;;11.38;51.00;97327.38;10327968;28;20032;-51
2023/04/26 22:11:25;;;;;;;7.55;5.30;;;;;;;11.44;51.03;97326.47;10326023;28;20526;-51
2023/04/26 22:16:23;;;;;;;10.07;5.63;;;;;;;11.28;51.04;97322.31;10323997;28;20519;-51
2023/04/26 22:21:22;;;;;;;5.22;3.95;;;;;;;11.12;50.78;97325.06;10321441;28;20037;-51
2023/04/26 22:26:21;;;;;;;10.60;4.65;;;;;;;11.11;51.46;97330.28;10322539;28;20029;-51
2023/04/26 22:31:20;;;;;;;10.15;4.95;;;;;;;11.12;50.74;97332.84;10324150;28;20035;-51
2023/04/26 22:36:19;;;;;;;7.63;4.82;;;;;;;11.19;50.95;97329.31;10328289;28;20025;-51
2023/04/26 22:41:18;;;;;;;;;;;;;;;11.29;51.47;97334.41;10327820;28;20475;-51
2023/04/26 22:46:17;;;;;;;8.15;5.03;;;;;;;11.13;50.40;97331.16;10325220;28;20303;-51
2023/04/26 22:51:16;;;;;;;11.60;5.25;;;;;;;10.67;49.90;97314.22;10323812;28;20561;-53
2023/04/26 22:56:15;;;;;;;6.70;4.88;;;;;;;10.82;50.28;97342.63;10324691;28;20447;-51
2023/04/26 23:01:14;;;;;;;5.72;3.95;;;;;;;10.81;50.25;97332.25;10323895;28;20473;-51
2023/04/26 23:06:13;;;;;;;9.90;4.82;;;;;;;10.72;49.83;97330.59;10324456;28;20403;-51
2023/04/26 23:11:12;;;;;;;9.18;5.05;;;;;;;10.81;50.38;97327.94;10323859;28;20037;-51
2023/04/26 23:16:12;;;;;;;6.70;4.45;;;;;;;10.85;49.26;97323.59;10323085;28;20498;-51
2023/04/26 23:21:11;;;;;;;7.22;4.72;;;;;;;10.86;49.62;97314.06;10322351;28;20563;-51
2023/04/26 23:26:10;;;;;;;9.13;5.20;;;;;;;10.94;49.90;97326.13;10323585;28;20048;-51